08D

Stanley Municipal Airport

Stanley, North Dakota, USA
METAR K08D 110155Z AUTO 23005KT 10SM CLR M04/M05 A2991 RMK AO2
Observed Flight Rules
Dec-11 @ 01:55 UTC (30 minutes ago) Visual Flight Rules
Wind Visibility Clouds
230° at 5 knots 10 miles
  • Clear skies
Temperatures Readings
Current -4°C / 25°F
Dewpoint -5°C / 23°F
Humidity 93%
Altimeter 29.91" Hg
Pressure 1013 hPa
Elevation 684
METAR K08D 110155Z AUTO 23005KT 10SM CLR M04/M05 A2991 RMK AO2
Observed Flight Rules
Dec-11 @ 01:55 UTC
(30 minutes ago)
VFR
Wind Visibility
230° at 5 knots 10 miles
Clouds
  • Clear skies
Temperature Dewpoint
-4°C / 25°F -5°C / 23°F
Humidity Altimeter Pressure
93% 29.91" Hg 1013 hPa